Check out our new BloomSky Weather System.

Active alerts


No alerts


Thunder radar  blitzortung!


Rain radar more information rain snow radar


Visit our other weather sites:

Template documentation
and downloads

And another site



Weather Underground History page Text

Daily Summary for February 14, 2018 Units:  Both    English   Metric
« Previous Day
Next Day »
Daily Weekly Monthly Yearly Custom
  High: Low: Average:
Temperature: TemperatureF °F /  -17.8 °C 51.3 °F /  10.7 °C 65.2 °F /  18.4 °C
Dew Point: DewpointF °F /  -17.8 °C 51.3 °F /  10.7 °C 63.1 °F /  17.3 °C
Humidity: Humidity % 73 % 93 %
Wind Speed: WindSpeedMPH mph /  0 km/h - 2.3 mph /  3.7 km/h
Wind Gust: WindSpeedGustMPH mph /  0 km/h - -
Wind:- - South
Pressure: PressureIn in /  0 hPa 30.14 in /  1020.5 hPa -
Precipitation: 0.01 in /  0.25 mm    
Historical Graphs
 
 
Tabular Data for February 14, 2018
Time Temperature Dew Point Pressure Wind Wind Speed Wind Gust Humidity Rainfall Rate (Hourly)
TemperatureF °F /  -17.8 °C DewpointF °F /  -17.8 °C PressureIn in /  0 hPa Calm     Humidity % HourlyPrecipIn in /  0 mm
00:02 51.3 °F /  10.7 °C 51.3 °F /  10.7 °C 30.33 in /  1027 hPa Calm   4.0 mph /  6.4 km/h 100 % 0.00 in /  0 mm
00:07 51.3 °F /  10.7 °C 51.3 °F /  10.7 °C 30.33 in /  1027 hPa Calm   4.0 mph /  6.4 km/h 100 % 0.00 in /  0 mm
00:12 51.3 °F /  10.7 °C 51.3 °F /  10.7 °C 30.33 in /  1027 hPa Calm   4.0 mph /  6.4 km/h 100 % 0.00 in /  0 mm
00:17 51.3 °F /  10.7 °C 51.3 °F /  10.7 °C 30.33 in /  1027 hPa Calm   1.0 mph /  1.6 km/h 100 % 0.00 in /  0 mm
00:22 51.3 °F /  10.7 °C 51.3 °F /  10.7 °C 30.32 in /  1026.6 hPa Calm   2.0 mph /  3.2 km/h 100 % 0.00 in /  0 mm
00:27 51.3 °F /  10.7 °C 51.3 °F /  10.7 °C 30.32 in /  1026.6 hPa Calm   2.0 mph /  3.2 km/h 100 % 0.00 in /  0 mm
00:32 51.3 °F /  10.7 °C 51.3 °F /  10.7 °C 30.32 in /  1026.6 hPa ENE 1.0 mph /  1.6 km/h 2.0 mph /  3.2 km/h 100 % 0.00 in /  0 mm
00:37 51.4 °F /  10.8 °C 51.4 °F /  10.8 °C 30.32 in /  1026.6 hPa North 1.0 mph /  1.6 km/h 2.0 mph /  3.2 km/h 100 % 0.00 in /  0 mm
00:42 51.4 °F /  10.8 °C 51.4 °F /  10.8 °C 30.32 in /  1026.6 hPa Calm   2.0 mph /  3.2 km/h 100 % 0.00 in /  0 mm
00:47 51.4 °F /  10.8 °C 51.4 °F /  10.8 °C 30.32 in /  1026.6 hPa Calm   2.0 mph /  3.2 km/h 100 % 0.00 in /  0 mm
00:52 51.4 °F /  10.8 °C 51.4 °F /  10.8 °C 30.32 in /  1026.6 hPa Calm   1.0 mph /  1.6 km/h 100 % 0.00 in /  0 mm
00:57 51.4 °F /  10.8 °C 51.4 °F /  10.8 °C 30.32 in /  1026.6 hPa Calm   1.0 mph /  1.6 km/h 100 % 0.00 in /  0 mm
01:02 51.4 °F /  10.8 °C 51.4 °F /  10.8 °C 30.32 in /  1026.6 hPa Calm   1.0 mph /  1.6 km/h 100 % 0.00 in /  0 mm
01:07 51.6 °F /  10.9 °C 51.6 °F /  10.9 °C 30.32 in /  1026.6 hPa Calm   1.0 mph /  1.6 km/h 100 % 0.00 in /  0 mm
01:12 51.6 °F /  10.9 °C 51.6 °F /  10.9 °C 30.32 in /  1026.6 hPa Calm   1.0 mph /  1.6 km/h 100 % 0.00 in /  0 mm
01:17 51.6 °F /  10.9 °C 51.6 °F /  10.9 °C 30.32 in /  1026.6 hPa Calm   1.0 mph /  1.6 km/h 100 % 0.00 in /  0 mm
01:22 51.6 °F /  10.9 °C 51.6 °F /  10.9 °C 30.32 in /  1026.6 hPa Calm   1.0 mph /  1.6 km/h 100 % 0.00 in /  0 mm
01:27 51.6 °F /  10.9 °C 51.6 °F /  10.9 °C 30.32 in /  1026.6 hPa Calm   1.0 mph /  1.6 km/h 100 % 0.00 in /  0 mm
01:32 51.8 °F /  11 °C 51.8 °F /  11 °C 30.31 in /  1026.3 hPa Calm   1.0 mph /  1.6 km/h 100 % 0.00 in /  0 mm
01:37 51.8 °F /  11 °C 51.8 °F /  11 °C 30.31 in /  1026.3 hPa Calm   1.0 mph /  1.6 km/h 100 % 0.00 in /  0 mm
01:42 51.8 °F /  11 °C 51.8 °F /  11 °C 30.31 in /  1026.3 hPa NW 1.0 mph /  1.6 km/h 1.0 mph /  1.6 km/h 100 % 0.00 in /  0 mm
01:47 52.0 °F /  11.1 °C 52.0 °F /  11.1 °C 30.31 in /  1026.3 hPa Calm   2.0 mph /  3.2 km/h 100 % 0.00 in /  0 mm
01:52 52.0 °F /  11.1 °C 52.0 °F /  11.1 °C 30.31 in /  1026.3 hPa Calm   2.0 mph /  3.2 km/h 100 % 0.00 in /  0 mm
01:57 52.0 °F /  11.1 °C 52.0 °F /  11.1 °C 30.31 in /  1026.3 hPa Calm   2.0 mph /  3.2 km/h 100 % 0.00 in /  0 mm
02:02 52.0 °F /  11.1 °C 52.0 °F /  11.1 °C 30.30 in /  1026 hPa NW 1.0 mph /  1.6 km/h 2.0 mph /  3.2 km/h 100 % 0.00 in /  0 mm
02:07 52.0 °F /  11.1 °C 52.0 °F /  11.1 °C 30.30 in /  1026 hPa NNW 1.0 mph /  1.6 km/h 2.0 mph /  3.2 km/h 100 % 0.00 in /  0 mm
02:12 52.2 °F /  11.2 °C 52.2 °F /  11.2 °C 30.30 in /  1026 hPa Calm   2.0 mph /  3.2 km/h 100 % 0.00 in /  0 mm
02:17 52.2 °F /  11.2 °C 52.2 °F /  11.2 °C 30.30 in /  1026 hPa Calm   2.0 mph /  3.2 km/h 100 % 0.00 in /  0 mm
02:22 52.2 °F /  11.2 °C 52.2 °F /  11.2 °C 30.30 in /  1026 hPa Calm   2.0 mph /  3.2 km/h 100 % 0.00 in /  0 mm
02:27 52.2 °F /  11.2 °C 52.2 °F /  11.2 °C 30.30 in /  1026 hPa Calm   1.0 mph /  1.6 km/h 100 % 0.00 in /  0 mm
02:32 52.2 °F /  11.2 °C 52.2 °F /  11.2 °C 30.30 in /  1026 hPa Calm   1.0 mph /  1.6 km/h 100 % 0.00 in /  0 mm
02:37 52.2 °F /  11.2 °C 52.2 °F /  11.2 °C 30.30 in /  1026 hPa Calm   1.0 mph /  1.6 km/h 100 % 0.00 in /  0 mm
02:42 52.2 °F /  11.2 °C 52.2 °F /  11.2 °C 30.29 in /  1025.6 hPa Calm   1.0 mph /  1.6 km/h 100 % 0.00 in /  0 mm
02:47 52.2 °F /  11.2 °C 52.2 °F /  11.2 °C 30.29 in /  1025.6 hPa Calm   2.0 mph /  3.2 km/h 100 % 0.00 in /  0 mm
02:52 52.2 °F /  11.2 °C 52.2 °F /  11.2 °C 30.29 in /  1025.6 hPa Calm   2.0 mph /  3.2 km/h 100 % 0.00 in /  0 mm
02:57 52.3 °F /  11.3 °C 52.3 °F /  11.3 °C 30.29 in /  1025.6 hPa Calm   2.0 mph /  3.2 km/h 100 % 0.00 in /  0 mm
03:02 52.2 °F /  11.2 °C 52.2 °F /  11.2 °C 30.29 in /  1025.6 hPa Calm   1.0 mph /  1.6 km/h 100 % 0.00 in /  0 mm
03:07 52.3 °F /  11.3 °C 52.3 °F /  11.3 °C 30.29 in /  1025.6 hPa Calm   1.0 mph /  1.6 km/h 100 % 0.00 in /  0 mm
03:12 52.3 °F /  11.3 °C 52.3 °F /  11.3 °C 30.29 in /  1025.6 hPa Calm   1.0 mph /  1.6 km/h 100 % 0.00 in /  0 mm
03:17 52.3 °F /  11.3 °C 52.3 °F /  11.3 °C 30.29 in /  1025.6 hPa Calm   1.0 mph /  1.6 km/h 100 % 0.00 in /  0 mm
03:22 52.3 °F /  11.3 °C 52.3 °F /  11.3 °C 30.29 in /  1025.6 hPa Calm   1.0 mph /  1.6 km/h 100 % 0.00 in /  0 mm
03:27 52.3 °F /  11.3 °C 52.3 °F /  11.3 °C 30.28 in /  1025.3 hPa Calm   1.0 mph /  1.6 km/h 100 % 0.00 in /  0 mm
03:32 52.3 °F /  11.3 °C 52.3 °F /  11.3 °C 30.28 in /  1025.3 hPa Calm   1.0 mph /  1.6 km/h 100 % 0.00 in /  0 mm
03:37 52.3 °F /  11.3 °C 52.3 °F /  11.3 °C 30.28 in /  1025.3 hPa Calm     100 % 0.00 in /  0 mm
03:42 52.3 °F /  11.3 °C 52.3 °F /  11.3 °C 30.28 in /  1025.3 hPa Calm     100 % 0.00 in /  0 mm
03:47 52.5 °F /  11.4 °C 52.5 °F /  11.4 °C 30.28 in /  1025.3 hPa Calm     100 % 0.00 in /  0 mm
03:52 52.5 °F /  11.4 °C 52.5 °F /  11.4 °C 30.27 in /  1024.9 hPa Calm     100 % 0.00 in /  0 mm
03:57 52.5 °F /  11.4 °C 52.5 °F /  11.4 °C 30.28 in /  1025.3 hPa Calm     100 % 0.00 in /  0 mm
04:02 52.5 °F /  11.4 °C 52.5 °F /  11.4 °C 30.28 in /  1025.3 hPa Calm   1.0 mph /  1.6 km/h 100 % 0.00 in /  0 mm
04:07 52.7 °F /  11.5 °C 52.7 °F /  11.5 °C 30.28 in /  1025.3 hPa Calm   1.0 mph /  1.6 km/h 100 % 0.00 in /  0 mm
04:12 52.9 °F /  11.6 °C 52.9 °F /  11.6 °C 30.28 in /  1025.3 hPa Calm   1.0 mph /  1.6 km/h 100 % 0.00 in /  0 mm
04:17 52.9 °F /  11.6 °C 52.9 °F /  11.6 °C 30.28 in /  1025.3 hPa Calm   1.0 mph /  1.6 km/h 100 % 0.00 in /  0 mm
04:22 52.9 °F /  11.6 °C 52.9 °F /  11.6 °C 30.27 in /  1024.9 hPa Calm   1.0 mph /  1.6 km/h 100 % 0.00 in /  0 mm
04:27 52.9 °F /  11.6 °C 52.9 °F /  11.6 °C 30.27 in /  1024.9 hPa Calm   1.0 mph /  1.6 km/h 100 % 0.00 in /  0 mm
04:32 53.1 °F /  11.7 °C 53.1 °F /  11.7 °C 30.27 in /  1024.9 hPa SE 1.0 mph /  1.6 km/h 1.0 mph /  1.6 km/h 100 % 0.00 in /  0 mm
04:37 53.1 °F /  11.7 °C 53.1 °F /  11.7 °C 30.27 in /  1024.9 hPa Calm   1.0 mph /  1.6 km/h 100 % 0.00 in /  0 mm
04:42 53.2 °F /  11.8 °C 53.2 °F /  11.8 °C 30.27 in /  1024.9 hPa Calm   1.0 mph /  1.6 km/h 100 % 0.00 in /  0 mm
04:47 53.2 °F /  11.8 °C 53.2 °F /  11.8 °C 30.27 in /  1024.9 hPa Calm   1.0 mph /  1.6 km/h 100 % 0.01 in /  0.25 mm
04:52 53.4 °F /  11.9 °C 53.4 °F /  11.9 °C 30.27 in /  1024.9 hPa Calm   1.0 mph /  1.6 km/h 100 % 0.01 in /  0.25 mm
04:57 53.6 °F /  12 °C 53.6 °F /  12 °C 30.27 in /  1024.9 hPa Calm   1.0 mph /  1.6 km/h 100 % 0.01 in /  0.25 mm
05:02 53.8 °F /  12.1 °C 53.8 °F /  12.1 °C 30.27 in /  1024.9 hPa Calm   1.0 mph /  1.6 km/h 100 % 0.01 in /  0.25 mm
05:07 53.8 °F /  12.1 °C 53.8 °F /  12.1 °C 30.27 in /  1024.9 hPa Calm   1.0 mph /  1.6 km/h 100 % 0.01 in /  0.25 mm
05:12 54.0 °F /  12.2 °C 54.0 °F /  12.2 °C 30.27 in /  1024.9 hPa Calm   1.0 mph /  1.6 km/h 100 % 0.01 in /  0.25 mm
05:17 54.0 °F /  12.2 °C 54.0 °F /  12.2 °C 30.27 in /  1024.9 hPa Calm   1.0 mph /  1.6 km/h 100 % 0.01 in /  0.25 mm
05:22 54.0 °F /  12.2 °C 54.0 °F /  12.2 °C 30.27 in /  1024.9 hPa East 2.0 mph /  3.2 km/h 2.0 mph /  3.2 km/h 100 % 0.01 in /  0.25 mm
05:27 54.0 °F /  12.2 °C 54.0 °F /  12.2 °C 30.27 in /  1024.9 hPa Calm   4.0 mph /  6.4 km/h 100 % 0.01 in /  0.25 mm
05:32 54.1 °F /  12.3 °C 54.1 °F /  12.3 °C 30.27 in /  1024.9 hPa Calm   4.0 mph /  6.4 km/h 100 % 0.01 in /  0.25 mm
05:37 54.1 °F /  12.3 °C 54.1 °F /  12.3 °C 30.27 in /  1024.9 hPa Calm   4.0 mph /  6.4 km/h 100 % 0.01 in /  0.25 mm
05:42 54.3 °F /  12.4 °C 54.3 °F /  12.4 °C 30.27 in /  1024.9 hPa Calm   1.0 mph /  1.6 km/h 100 % 0.01 in /  0.25 mm
05:47 54.3 °F /  12.4 °C 54.3 °F /  12.4 °C 30.27 in /  1024.9 hPa Calm   1.0 mph /  1.6 km/h 100 % 0.00 in /  0 mm
05:52 54.5 °F /  12.5 °C 54.5 °F /  12.5 °C 30.27 in /  1024.9 hPa NNW 1.0 mph /  1.6 km/h 1.0 mph /  1.6 km/h 100 % 0.00 in /  0 mm
05:57 54.5 °F /  12.5 °C 54.5 °F /  12.5 °C 30.27 in /  1024.9 hPa Calm   1.0 mph /  1.6 km/h 100 % 0.00 in /  0 mm
06:02 54.7 °F /  12.6 °C 54.7 °F /  12.6 °C 30.27 in /  1024.9 hPa Calm   1.0 mph /  1.6 km/h 100 % 0.00 in /  0 mm
06:07 54.7 °F /  12.6 °C 54.7 °F /  12.6 °C 30.27 in /  1024.9 hPa Calm   1.0 mph /  1.6 km/h 100 % 0.00 in /  0 mm
06:12 54.7 °F /  12.6 °C 54.7 °F /  12.6 °C 30.27 in /  1024.9 hPa Calm   1.0 mph /  1.6 km/h 100 % 0.00 in /  0 mm
06:17 54.9 °F /  12.7 °C 54.9 °F /  12.7 °C 30.27 in /  1024.9 hPa Calm   1.0 mph /  1.6 km/h 100 % 0.00 in /  0 mm
06:22 54.9 °F /  12.7 °C 54.9 °F /  12.7 °C 30.27 in /  1024.9 hPa Calm   1.0 mph /  1.6 km/h 100 % 0.00 in /  0 mm
06:27 54.9 °F /  12.7 °C 54.9 °F /  12.7 °C 30.28 in /  1025.3 hPa NNW 1.0 mph /  1.6 km/h 1.0 mph /  1.6 km/h 100 % 0.00 in /  0 mm
06:32 55.0 °F /  12.8 °C 55.0 °F /  12.8 °C 30.28 in /  1025.3 hPa NNW 1.0 mph /  1.6 km/h 1.0 mph /  1.6 km/h 100 % 0.00 in /  0 mm
06:37 55.0 °F /  12.8 °C 55.0 °F /  12.8 °C 30.28 in /  1025.3 hPa Calm   1.0 mph /  1.6 km/h 100 % 0.00 in /  0 mm
06:42 55.0 °F /  12.8 °C 55.0 °F /  12.8 °C 30.28 in /  1025.3 hPa NNW 1.0 mph /  1.6 km/h 1.0 mph /  1.6 km/h 100 % 0.00 in /  0 mm
06:47 54.9 °F /  12.7 °C 54.9 °F /  12.7 °C 30.29 in /  1025.6 hPa Calm   1.0 mph /  1.6 km/h 100 % 0.00 in /  0 mm
06:52 54.9 °F /  12.7 °C 54.9 °F /  12.7 °C 30.29 in /  1025.6 hPa Calm   1.0 mph /  1.6 km/h 100 % 0.00 in /  0 mm
06:57 54.9 °F /  12.7 °C 54.9 °F /  12.7 °C 30.29 in /  1025.6 hPa Calm   1.0 mph /  1.6 km/h 100 % 0.00 in /  0 mm
07:02 54.9 °F /  12.7 °C 54.9 °F /  12.7 °C 30.29 in /  1025.6 hPa Calm   1.0 mph /  1.6 km/h 100 % 0.00 in /  0 mm
07:07 55.0 °F /  12.8 °C 55.0 °F /  12.8 °C 30.29 in /  1025.6 hPa Calm     100 % 0.00 in /  0 mm
07:12 55.0 °F /  12.8 °C 55.0 °F /  12.8 °C 30.29 in /  1025.6 hPa Calm     100 % 0.00 in /  0 mm
07:17 55.0 °F /  12.8 °C 55.0 °F /  12.8 °C 30.29 in /  1025.6 hPa Calm     100 % 0.00 in /  0 mm
07:23 55.0 °F /  12.8 °C 55.0 °F /  12.8 °C 30.28 in /  1025.3 hPa Calm     100 % 0.00 in /  0 mm
07:27 55.2 °F /  12.9 °C 55.2 °F /  12.9 °C 30.29 in /  1025.6 hPa Calm     100 % 0.00 in /  0 mm
07:33 55.2 °F /  12.9 °C 55.2 °F /  12.9 °C 30.29 in /  1025.6 hPa Calm     100 % 0.00 in /  0 mm
07:38 55.4 °F /  13 °C 55.4 °F /  13 °C 30.28 in /  1025.3 hPa Calm     100 % 0.00 in /  0 mm
07:43 55.6 °F /  13.1 °C 55.6 °F /  13.1 °C 30.29 in /  1025.6 hPa Calm     100 % 0.00 in /  0 mm
07:48 55.8 °F /  13.2 °C 55.8 °F /  13.2 °C 30.29 in /  1025.6 hPa Calm     100 % 0.00 in /  0 mm
07:53 55.8 °F /  13.2 °C 55.8 °F /  13.2 °C 30.29 in /  1025.6 hPa Calm   1.0 mph /  1.6 km/h 100 % 0.00 in /  0 mm
07:58 55.9 °F /  13.3 °C 55.9 °F /  13.3 °C 30.28 in /  1025.3 hPa Calm   1.0 mph /  1.6 km/h 100 % 0.00 in /  0 mm
08:03 55.9 °F /  13.3 °C 55.9 °F /  13.3 °C 30.29 in /  1025.6 hPa Calm   1.0 mph /  1.6 km/h 100 % 0.00 in /  0 mm
08:08 56.1 °F /  13.4 °C 56.1 °F /  13.4 °C 30.29 in /  1025.6 hPa NNW 1.0 mph /  1.6 km/h 1.0 mph /  1.6 km/h 100 % 0.00 in /  0 mm
08:13 56.1 °F /  13.4 °C 56.1 °F /  13.4 °C 30.29 in /  1025.6 hPa Calm   1.0 mph /  1.6 km/h 100 % 0.00 in /  0 mm
08:18 56.3 °F /  13.5 °C 56.3 °F /  13.5 °C 30.29 in /  1025.6 hPa Calm   3.0 mph /  4.8 km/h 100 % 0.00 in /  0 mm
08:23 56.5 °F /  13.6 °C 56.5 °F /  13.6 °C 30.29 in /  1025.6 hPa East 1.0 mph /  1.6 km/h 3.0 mph /  4.8 km/h 100 % 0.00 in /  0 mm
08:28 56.7 °F /  13.7 °C 56.7 °F /  13.7 °C 30.30 in /  1026 hPa Calm   3.0 mph /  4.8 km/h 100 % 0.00 in /  0 mm
08:33 56.8 °F /  13.8 °C 56.8 °F /  13.8 °C 30.30 in /  1026 hPa Calm   2.0 mph /  3.2 km/h 100 % 0.00 in /  0 mm
08:38 57.2 °F /  14 °C 57.2 °F /  14 °C 30.30 in /  1026 hPa Calm   2.0 mph /  3.2 km/h 100 % 0.00 in /  0 mm
08:43 57.7 °F /  14.3 °C 57.7 °F /  14.3 °C 30.30 in /  1026 hPa Calm   1.0 mph /  1.6 km/h 100 % 0.00 in /  0 mm
08:48 57.9 °F /  14.4 °C 57.9 °F /  14.4 °C 30.30 in /  1026 hPa Calm   1.0 mph /  1.6 km/h 100 % 0.00 in /  0 mm
08:53 58.5 °F /  14.7 °C 58.5 °F /  14.7 °C 30.30 in /  1026 hPa East 1.0 mph /  1.6 km/h 1.0 mph /  1.6 km/h 100 % 0.00 in /  0 mm
08:58 59.0 °F /  15 °C 59.0 °F /  15 °C 30.31 in /  1026.3 hPa Calm   2.0 mph /  3.2 km/h 100 % 0.00 in /  0 mm
09:03 59.4 °F /  15.2 °C 59.4 °F /  15.2 °C 30.31 in /  1026.3 hPa Calm   2.0 mph /  3.2 km/h 100 % 0.00 in /  0 mm
09:08 59.9 °F /  15.5 °C 59.9 °F /  15.5 °C 30.31 in /  1026.3 hPa SE 1.0 mph /  1.6 km/h 2.0 mph /  3.2 km/h 100 % 0.00 in /  0 mm
09:13 60.4 °F /  15.8 °C 60.4 °F /  15.8 °C 30.31 in /  1026.3 hPa Calm   2.0 mph /  3.2 km/h 100 % 0.00 in /  0 mm
09:18 60.8 °F /  16 °C 60.8 °F /  16 °C 30.31 in /  1026.3 hPa Calm   3.0 mph /  4.8 km/h 100 % 0.00 in /  0 mm
09:23 61.2 °F /  16.2 °C 61.2 °F /  16.2 °C 30.31 in /  1026.3 hPa East 1.0 mph /  1.6 km/h 3.0 mph /  4.8 km/h 100 % 0.00 in /  0 mm
09:28 61.7 °F /  16.5 °C 61.7 °F /  16.5 °C 30.30 in /  1026 hPa SE 2.0 mph /  3.2 km/h 3.0 mph /  4.8 km/h 100 % 0.00 in /  0 mm
09:33 62.2 °F /  16.8 °C 62.2 °F /  16.8 °C 30.30 in /  1026 hPa ESE 1.0 mph /  1.6 km/h 2.0 mph /  3.2 km/h 100 % 0.00 in /  0 mm
09:38 62.8 °F /  17.1 °C 62.8 °F /  17.1 °C 30.31 in /  1026.3 hPa SE 1.0 mph /  1.6 km/h 3.0 mph /  4.8 km/h 100 % 0.00 in /  0 mm
09:43 63.7 °F /  17.6 °C 63.7 °F /  17.6 °C 30.30 in /  1026 hPa SSW 1.0 mph /  1.6 km/h 3.0 mph /  4.8 km/h 100 % 0.00 in /  0 mm
09:48 64.0 °F /  17.8 °C 64.0 °F /  17.8 °C 30.30 in /  1026 hPa South 1.0 mph /  1.6 km/h 3.0 mph /  4.8 km/h 100 % 0.00 in /  0 mm
09:53 64.8 °F /  18.2 °C 64.8 °F /  18.2 °C 30.30 in /  1026 hPa ESE 2.0 mph /  3.2 km/h 3.0 mph /  4.8 km/h 100 % 0.00 in /  0 mm
09:58 65.5 °F /  18.6 °C 65.5 °F /  18.6 °C 30.30 in /  1026 hPa SSE 3.0 mph /  4.8 km/h 3.0 mph /  4.8 km/h 100 % 0.00 in /  0 mm
10:03 66.4 °F /  19.1 °C 66.4 °F /  19.1 °C 30.30 in /  1026 hPa SE 5.0 mph /  8 km/h 5.0 mph /  8 km/h 100 % 0.00 in /  0 mm
10:08 66.7 °F /  19.3 °C 66.7 °F /  19.3 °C 30.30 in /  1026 hPa SSE 3.0 mph /  4.8 km/h 6.0 mph /  9.7 km/h 100 % 0.00 in /  0 mm
10:13 67.5 °F /  19.7 °C 67.5 °F /  19.7 °C 30.30 in /  1026 hPa SE 2.0 mph /  3.2 km/h 7.0 mph /  11.3 km/h 100 % 0.00 in /  0 mm
10:18 67.8 °F /  19.9 °C 67.8 °F /  19.9 °C 30.30 in /  1026 hPa SSW 3.0 mph /  4.8 km/h 7.0 mph /  11.3 km/h 100 % 0.00 in /  0 mm
10:23 68.2 °F /  20.1 °C 68.2 °F /  20.1 °C 30.30 in /  1026 hPa ESE 3.0 mph /  4.8 km/h 11.0 mph /  17.7 km/h 100 % 0.00 in /  0 mm
10:28 68.4 °F /  20.2 °C 68.4 °F /  20.2 °C 30.30 in /  1026 hPa SW 6.0 mph /  9.7 km/h 11.0 mph /  17.7 km/h 100 % 0.00 in /  0 mm
10:33 68.5 °F /  20.3 °C 68.5 °F /  20.3 °C 30.30 in /  1026 hPa SSW 2.0 mph /  3.2 km/h 11.0 mph /  17.7 km/h 100 % 0.00 in /  0 mm
10:38 68.7 °F /  20.4 °C 68.7 °F /  20.4 °C 30.29 in /  1025.6 hPa SSE 3.0 mph /  4.8 km/h 11.0 mph /  17.7 km/h 100 % 0.00 in /  0 mm
10:43 68.9 °F /  20.5 °C 68.9 °F /  20.5 °C 30.29 in /  1025.6 hPa SE 3.0 mph /  4.8 km/h 11.0 mph /  17.7 km/h 100 % 0.00 in /  0 mm
10:48 69.1 °F /  20.6 °C 69.1 °F /  20.6 °C 30.29 in /  1025.6 hPa ESE 7.0 mph /  11.3 km/h 11.0 mph /  17.7 km/h 100 % 0.00 in /  0 mm
10:53 69.3 °F /  20.7 °C 69.3 °F /  20.7 °C 30.29 in /  1025.6 hPa SE 6.0 mph /  9.7 km/h 12.0 mph /  19.3 km/h 100 % 0.00 in /  0 mm
10:58 69.3 °F /  20.7 °C 69.3 °F /  20.7 °C 30.29 in /  1025.6 hPa South 6.0 mph /  9.7 km/h 12.0 mph /  19.3 km/h 100 % 0.00 in /  0 mm
11:03 69.4 °F /  20.8 °C 69.4 °F /  20.8 °C 30.29 in /  1025.6 hPa SSW 7.0 mph /  11.3 km/h 12.0 mph /  19.3 km/h 100 % 0.00 in /  0 mm
11:08 69.6 °F /  20.9 °C 69.6 °F /  20.9 °C 30.28 in /  1025.3 hPa South 11.0 mph /  17.7 km/h 11.0 mph /  17.7 km/h 100 % 0.00 in /  0 mm
11:13 70.0 °F /  21.1 °C 70.0 °F /  21.1 °C 30.28 in /  1025.3 hPa SSE 3.0 mph /  4.8 km/h 12.0 mph /  19.3 km/h 100 % 0.00 in /  0 mm
11:18 70.2 °F /  21.2 °C 70.2 °F /  21.2 °C 30.28 in /  1025.3 hPa South 3.0 mph /  4.8 km/h 12.0 mph /  19.3 km/h 100 % 0.00 in /  0 mm
11:23 70.5 °F /  21.4 °C 70.5 °F /  21.4 °C 30.28 in /  1025.3 hPa SSE 6.0 mph /  9.7 km/h 12.0 mph /  19.3 km/h 100 % 0.00 in /  0 mm
11:28 70.5 °F /  21.4 °C 70.5 °F /  21.4 °C 30.28 in /  1025.3 hPa SSW 8.0 mph /  12.9 km/h 12.0 mph /  19.3 km/h 100 % 0.00 in /  0 mm
11:33 70.7 °F /  21.5 °C 70.7 °F /  21.5 °C 30.28 in /  1025.3 hPa SSW 7.0 mph /  11.3 km/h 12.0 mph /  19.3 km/h 100 % 0.00 in /  0 mm
11:38 70.9 °F /  21.6 °C 70.9 °F /  21.6 °C 30.27 in /  1024.9 hPa ESE 4.0 mph /  6.4 km/h 12.0 mph /  19.3 km/h 100 % 0.00 in /  0 mm
11:43 70.9 °F /  21.6 °C 70.9 °F /  21.6 °C 30.27 in /  1024.9 hPa South 5.0 mph /  8 km/h 11.0 mph /  17.7 km/h 100 % 0.00 in /  0 mm
11:48 71.2 °F /  21.8 °C 71.2 °F /  21.8 °C 30.27 in /  1024.9 hPa SSE 6.0 mph /  9.7 km/h 11.0 mph /  17.7 km/h 100 % 0.00 in /  0 mm
11:53 71.1 °F /  21.7 °C 71.1 °F /  21.7 °C 30.27 in /  1024.9 hPa SSE 5.0 mph /  8 km/h 14.0 mph /  22.5 km/h 100 % 0.00 in /  0 mm
11:58 71.2 °F /  21.8 °C 71.2 °F /  21.8 °C 30.27 in /  1024.9 hPa SSW 3.0 mph /  4.8 km/h 14.0 mph /  22.5 km/h 100 % 0.00 in /  0 mm
12:03 71.6 °F /  22 °C 71.6 °F /  22 °C 30.27 in /  1024.9 hPa SSE 3.0 mph /  4.8 km/h 14.0 mph /  22.5 km/h 100 % 0.00 in /  0 mm
12:08 71.8 °F /  22.1 °C 71.8 °F /  22.1 °C 30.27 in /  1024.9 hPa SSW 9.0 mph /  14.5 km/h 12.0 mph /  19.3 km/h 100 % 0.00 in /  0 mm
12:13 72.0 °F /  22.2 °C 71.6 °F /  22 °C 30.27 in /  1024.9 hPa SSW 3.0 mph /  4.8 km/h 11.0 mph /  17.7 km/h 99 % 0.00 in /  0 mm
12:18 72.1 °F /  22.3 °C 71.6 °F /  22 °C 30.27 in /  1024.9 hPa SSW 6.0 mph /  9.7 km/h 11.0 mph /  17.7 km/h 98 % 0.00 in /  0 mm
12:23 72.3 °F /  22.4 °C 71.4 °F /  21.9 °C 30.27 in /  1024.9 hPa SSW 2.0 mph /  3.2 km/h 11.0 mph /  17.7 km/h 97 % 0.00 in /  0 mm
12:28 72.5 °F /  22.5 °C 71.6 °F /  22 °C 30.27 in /  1024.9 hPa South 3.0 mph /  4.8 km/h 11.0 mph /  17.7 km/h 97 % 0.00 in /  0 mm
12:33 72.7 °F /  22.6 °C 71.4 °F /  21.9 °C 30.27 in /  1024.9 hPa SSE 7.0 mph /  11.3 km/h 11.0 mph /  17.7 km/h 96 % 0.00 in /  0 mm
12:38 72.7 °F /  22.6 °C 71.2 °F /  21.8 °C 30.26 in /  1024.6 hPa SSW 6.0 mph /  9.7 km/h 8.0 mph /  12.9 km/h 95 % 0.00 in /  0 mm
12:43 73.0 °F /  22.8 °C 71.2 °F /  21.8 °C 30.26 in /  1024.6 hPa ESE 7.0 mph /  11.3 km/h 10.0 mph /  16.1 km/h 94 % 0.00 in /  0 mm
12:48 73.2 °F /  22.9 °C 71.1 °F /  21.7 °C 30.26 in /  1024.6 hPa SW 4.0 mph /  6.4 km/h 10.0 mph /  16.1 km/h 93 % 0.00 in /  0 mm
12:53 73.6 °F /  23.1 °C 71.4 °F /  21.9 °C 30.25 in /  1024.3 hPa SE 6.0 mph /  9.7 km/h 11.0 mph /  17.7 km/h 93 % 0.00 in /  0 mm
12:58 74.3 °F /  23.5 °C 72.1 °F /  22.3 °C 30.25 in /  1024.3 hPa SSE 6.0 mph /  9.7 km/h 13.0 mph /  20.9 km/h 93 % 0.00 in /  0 mm
13:03 74.8 °F /  23.8 °C 72.0 °F /  22.2 °C 30.25 in /  1024.3 hPa SSW 2.0 mph /  3.2 km/h 13.0 mph /  20.9 km/h 91 % 0.00 in /  0 mm
13:08 75.0 °F /  23.9 °C 71.6 °F /  22 °C 30.25 in /  1024.3 hPa SW 8.0 mph /  12.9 km/h 13.0 mph /  20.9 km/h 89 % 0.00 in /  0 mm
13:13 75.2 °F /  24 °C 71.8 °F /  22.1 °C 30.24 in /  1023.9 hPa South 7.0 mph /  11.3 km/h 10.0 mph /  16.1 km/h 89 % 0.00 in /  0 mm
13:18 75.6 °F /  24.2 °C 72.1 °F /  22.3 °C 30.24 in /  1023.9 hPa SSE 3.0 mph /  4.8 km/h 10.0 mph /  16.1 km/h 89 % 0.00 in /  0 mm
13:23 76.5 °F /  24.7 °C 73.0 °F /  22.8 °C 30.23 in /  1023.6 hPa SSE 5.0 mph /  8 km/h 12.0 mph /  19.3 km/h 89 % 0.00 in /  0 mm
13:28 77.0 °F /  25 °C 72.5 °F /  22.5 °C 30.23 in /  1023.6 hPa SSW 4.0 mph /  6.4 km/h 12.0 mph /  19.3 km/h 86 % 0.00 in /  0 mm
13:33 77.4 °F /  25.2 °C 72.9 °F /  22.7 °C 30.23 in /  1023.6 hPa SW 7.0 mph /  11.3 km/h 12.0 mph /  19.3 km/h 86 % 0.00 in /  0 mm
13:38 77.4 °F /  25.2 °C 72.1 °F /  22.3 °C 30.23 in /  1023.6 hPa SSW 7.0 mph /  11.3 km/h 10.0 mph /  16.1 km/h 84 % 0.00 in /  0 mm
13:43 77.2 °F /  25.1 °C 71.6 °F /  22 °C 30.22 in /  1023.2 hPa SSW 7.0 mph /  11.3 km/h 10.0 mph /  16.1 km/h 83 % 0.00 in /  0 mm
13:48 77.4 °F /  25.2 °C 72.5 °F /  22.5 °C 30.22 in /  1023.2 hPa SSE 7.0 mph /  11.3 km/h 10.0 mph /  16.1 km/h 85 % 0.00 in /  0 mm
13:53 77.4 °F /  25.2 °C 71.4 °F /  21.9 °C 30.22 in /  1023.2 hPa ESE 5.0 mph /  8 km/h 10.0 mph /  16.1 km/h 82 % 0.00 in /  0 mm
13:58 77.7 °F /  25.4 °C 71.8 °F /  22.1 °C 30.22 in /  1023.2 hPa SE 8.0 mph /  12.9 km/h 12.0 mph /  19.3 km/h 82 % 0.00 in /  0 mm
14:03 78.1 °F /  25.6 °C 71.8 °F /  22.1 °C 30.21 in /  1022.9 hPa SSW 4.0 mph /  6.4 km/h 12.0 mph /  19.3 km/h 81 % 0.00 in /  0 mm
14:08 78.1 °F /  25.6 °C 72.1 °F /  22.3 °C 30.21 in /  1022.9 hPa ESE 4.0 mph /  6.4 km/h 12.0 mph /  19.3 km/h 82 % 0.00 in /  0 mm
14:13 78.4 °F /  25.8 °C 72.5 °F /  22.5 °C 30.21 in /  1022.9 hPa SE 3.0 mph /  4.8 km/h 11.0 mph /  17.7 km/h 82 % 0.00 in /  0 mm
14:18 79.0 °F /  26.1 °C 72.3 °F /  22.4 °C 30.21 in /  1022.9 hPa SSE 5.0 mph /  8 km/h 9.0 mph /  14.5 km/h 80 % 0.00 in /  0 mm
14:23 79.0 °F /  26.1 °C 72.0 °F /  22.2 °C 30.20 in /  1022.6 hPa South 6.0 mph /  9.7 km/h 9.0 mph /  14.5 km/h 79 % 0.00 in /  0 mm
14:28 78.6 °F /  25.9 °C 71.6 °F /  22 °C 30.20 in /  1022.6 hPa SSE 6.0 mph /  9.7 km/h 9.0 mph /  14.5 km/h 79 % 0.00 in /  0 mm
14:33 78.4 °F /  25.8 °C 72.1 °F /  22.3 °C 30.20 in /  1022.6 hPa SSE 2.0 mph /  3.2 km/h 11.0 mph /  17.7 km/h 81 % 0.00 in /  0 mm
14:38 78.8 °F /  26 °C 71.8 °F /  22.1 °C 30.20 in /  1022.6 hPa South 8.0 mph /  12.9 km/h 11.0 mph /  17.7 km/h 79 % 0.00 in /  0 mm
14:43 78.6 °F /  25.9 °C 71.6 °F /  22 °C 30.20 in /  1022.6 hPa SSW 5.0 mph /  8 km/h 11.0 mph /  17.7 km/h 79 % 0.00 in /  0 mm
14:48 78.4 °F /  25.8 °C 71.4 °F /  21.9 °C 30.20 in /  1022.6 hPa SW 7.0 mph /  11.3 km/h 11.0 mph /  17.7 km/h 79 % 0.00 in /  0 mm
14:53 78.4 °F /  25.8 °C 71.4 °F /  21.9 °C 30.19 in /  1022.2 hPa South 5.0 mph /  8 km/h 11.0 mph /  17.7 km/h 79 % 0.00 in /  0 mm
14:58 78.4 °F /  25.8 °C 71.4 °F /  21.9 °C 30.19 in /  1022.2 hPa South 5.0 mph /  8 km/h 12.0 mph /  19.3 km/h 79 % 0.00 in /  0 mm
15:03 78.6 °F /  25.9 °C 72.3 °F /  22.4 °C 30.19 in /  1022.2 hPa SSW 3.0 mph /  4.8 km/h 12.0 mph /  19.3 km/h 81 % 0.00 in /  0 mm
15:08 79.2 °F /  26.2 °C 71.8 °F /  22.1 °C 30.19 in /  1022.2 hPa South 7.0 mph /  11.3 km/h 12.0 mph /  19.3 km/h 78 % 0.00 in /  0 mm
15:13 79.5 °F /  26.4 °C 72.1 °F /  22.3 °C 30.19 in /  1022.2 hPa SE 4.0 mph /  6.4 km/h 11.0 mph /  17.7 km/h 78 % 0.00 in /  0 mm
15:19 79.9 °F /  26.6 °C 72.0 °F /  22.2 °C 30.18 in /  1021.9 hPa South 6.0 mph /  9.7 km/h 11.0 mph /  17.7 km/h 77 % 0.00 in /  0 mm
15:24 80.1 °F /  26.7 °C 72.1 °F /  22.3 °C 30.18 in /  1021.9 hPa South 7.0 mph /  11.3 km/h 11.0 mph /  17.7 km/h 77 % 0.00 in /  0 mm
15:29 80.1 °F /  26.7 °C 72.5 °F /  22.5 °C 30.18 in /  1021.9 hPa SSW 3.0 mph /  4.8 km/h 11.0 mph /  17.7 km/h 78 % 0.00 in /  0 mm
15:34 79.9 °F /  26.6 °C 72.0 °F /  22.2 °C 30.17 in /  1021.6 hPa SSE 4.0 mph /  6.4 km/h 13.0 mph /  20.9 km/h 77 % 0.00 in /  0 mm
15:39 79.5 °F /  26.4 °C 71.6 °F /  22 °C 30.17 in /  1021.6 hPa SSE 5.0 mph /  8 km/h 13.0 mph /  20.9 km/h 77 % 0.00 in /  0 mm
15:44 79.5 °F /  26.4 °C 72.1 °F /  22.3 °C 30.17 in /  1021.6 hPa South 4.0 mph /  6.4 km/h 13.0 mph /  20.9 km/h 78 % 0.00 in /  0 mm
15:49 79.7 °F /  26.5 °C 71.8 °F /  22.1 °C 30.17 in /  1021.6 hPa South 10.0 mph /  16.1 km/h 13.0 mph /  20.9 km/h 77 % 0.00 in /  0 mm
15:54 80.1 °F /  26.7 °C 72.1 °F /  22.3 °C 30.17 in /  1021.6 hPa SW 8.0 mph /  12.9 km/h 13.0 mph /  20.9 km/h 77 % 0.00 in /  0 mm
15:59 80.2 °F /  26.8 °C 72.0 °F /  22.2 °C 30.17 in /  1021.6 hPa SSW 5.0 mph /  8 km/h 11.0 mph /  17.7 km/h 76 % 0.00 in /  0 mm
16:04 80.8 °F /  27.1 °C 72.1 °F /  22.3 °C 30.17 in /  1021.6 hPa SE 7.0 mph /  11.3 km/h 11.0 mph /  17.7 km/h 75 % 0.00 in /  0 mm
16:09 80.4 °F /  26.9 °C 71.8 °F /  22.1 °C 30.17 in /  1021.6 hPa SE 3.0 mph /  4.8 km/h 11.0 mph /  17.7 km/h 75 % 0.00 in /  0 mm
16:14 79.9 °F /  26.6 °C 71.6 °F /  22 °C 30.17 in /  1021.6 hPa SSW 5.0 mph /  8 km/h 11.0 mph /  17.7 km/h 76 % 0.00 in /  0 mm
16:19 79.5 °F /  26.4 °C 71.6 °F /  22 °C 30.17 in /  1021.6 hPa SSE 2.0 mph /  3.2 km/h 11.0 mph /  17.7 km/h 77 % 0.00 in /  0 mm
16:24 79.3 °F /  26.3 °C 71.4 °F /  21.9 °C 30.17 in /  1021.6 hPa SW 4.0 mph /  6.4 km/h 9.0 mph /  14.5 km/h 77 % 0.00 in /  0 mm
16:29 79.7 °F /  26.5 °C 71.4 °F /  21.9 °C 30.17 in /  1021.6 hPa SSW 3.0 mph /  4.8 km/h 9.0 mph /  14.5 km/h 76 % 0.00 in /  0 mm
16:34 79.9 °F /  26.6 °C 71.2 °F /  21.8 °C 30.17 in /  1021.6 hPa SE 5.0 mph /  8 km/h 9.0 mph /  14.5 km/h 75 % 0.00 in /  0 mm
16:39 79.5 °F /  26.4 °C 70.2 °F /  21.2 °C 30.17 in /  1021.6 hPa SW 5.0 mph /  8 km/h 9.0 mph /  14.5 km/h 73 % 0.00 in /  0 mm
16:44 79.2 °F /  26.2 °C 69.8 °F /  21 °C 30.17 in /  1021.6 hPa SSW 4.0 mph /  6.4 km/h 9.0 mph /  14.5 km/h 73 % 0.00 in /  0 mm
16:49 78.6 °F /  25.9 °C 69.3 °F /  20.7 °C 30.17 in /  1021.6 hPa WSW 3.0 mph /  4.8 km/h 9.0 mph /  14.5 km/h 73 % 0.00 in /  0 mm
16:54 78.4 °F /  25.8 °C 69.4 °F /  20.8 °C 30.17 in /  1021.6 hPa SSW 3.0 mph /  4.8 km/h 9.0 mph /  14.5 km/h 74 % 0.00 in /  0 mm
16:59 78.6 °F /  25.9 °C 69.3 °F /  20.7 °C 30.17 in /  1021.6 hPa WSW 3.0 mph /  4.8 km/h 9.0 mph /  14.5 km/h 73 % 0.00 in /  0 mm
17:04 78.6 °F /  25.9 °C 69.3 °F /  20.7 °C 30.17 in /  1021.6 hPa SW 4.0 mph /  6.4 km/h 8.0 mph /  12.9 km/h 73 % 0.00 in /  0 mm
17:09 78.4 °F /  25.8 °C 69.1 °F /  20.6 °C 30.17 in /  1021.6 hPa South 4.0 mph /  6.4 km/h 8.0 mph /  12.9 km/h 73 % 0.00 in /  0 mm
17:14 78.3 °F /  25.7 °C 69.3 °F /  20.7 °C 30.17 in /  1021.6 hPa South 3.0 mph /  4.8 km/h 8.0 mph /  12.9 km/h 74 % 0.00 in /  0 mm
17:19 78.3 °F /  25.7 °C 69.3 °F /  20.7 °C 30.17 in /  1021.6 hPa South 5.0 mph /  8 km/h 7.0 mph /  11.3 km/h 74 % 0.00 in /  0 mm
17:24 78.1 °F /  25.6 °C 69.4 °F /  20.8 °C 30.17 in /  1021.6 hPa SSE 6.0 mph /  9.7 km/h 7.0 mph /  11.3 km/h 75 % 0.00 in /  0 mm
17:29 77.9 °F /  25.5 °C 69.3 °F /  20.7 °C 30.17 in /  1021.6 hPa SSE 5.0 mph /  8 km/h 9.0 mph /  14.5 km/h 75 % 0.00 in /  0 mm
17:34 77.7 °F /  25.4 °C 69.1 °F /  20.6 °C 30.17 in /  1021.6 hPa SW 8.0 mph /  12.9 km/h 9.0 mph /  14.5 km/h 75 % 0.00 in /  0 mm
17:39 77.4 °F /  25.2 °C 68.9 °F /  20.5 °C 30.17 in /  1021.6 hPa SSW 1.0 mph /  1.6 km/h 12.0 mph /  19.3 km/h 75 % 0.00 in /  0 mm
17:44 77.4 °F /  25.2 °C 69.3 °F /  20.7 °C 30.17 in /  1021.6 hPa SSW 5.0 mph /  8 km/h 12.0 mph /  19.3 km/h 76 % 0.00 in /  0 mm
17:49 77.0 °F /  25 °C 68.9 °F /  20.5 °C 30.17 in /  1021.6 hPa South 3.0 mph /  4.8 km/h 12.0 mph /  19.3 km/h 76 % 0.00 in /  0 mm
17:54 76.6 °F /  24.8 °C 68.9 °F /  20.5 °C 30.17 in /  1021.6 hPa South 2.0 mph /  3.2 km/h 9.0 mph /  14.5 km/h 77 % 0.00 in /  0 mm
17:59 76.3 °F /  24.6 °C 68.9 °F /  20.5 °C 30.17 in /  1021.6 hPa SSW 2.0 mph /  3.2 km/h 6.0 mph /  9.7 km/h 78 % 0.00 in /  0 mm
18:04 75.9 °F /  24.4 °C 68.5 °F /  20.3 °C 30.17 in /  1021.6 hPa South 2.0 mph /  3.2 km/h 10.0 mph /  16.1 km/h 78 % 0.00 in /  0 mm
18:09 75.6 °F /  24.2 °C 68.5 °F /  20.3 °C 30.17 in /  1021.6 hPa SW 2.0 mph /  3.2 km/h 10.0 mph /  16.1 km/h 79 % 0.00 in /  0 mm
18:14 75.4 °F /  24.1 °C 68.7 °F /  20.4 °C 30.17 in /  1021.6 hPa SSE 1.0 mph /  1.6 km/h 10.0 mph /  16.1 km/h 80 % 0.00 in /  0 mm
18:19 75.0 °F /  23.9 °C 68.4 °F /  20.2 °C 30.17 in /  1021.6 hPa SSW 1.0 mph /  1.6 km/h 7.0 mph /  11.3 km/h 80 % 0.00 in /  0 mm
18:24 74.7 °F /  23.7 °C 68.4 °F /  20.2 °C 30.17 in /  1021.6 hPa Calm   7.0 mph /  11.3 km/h 81 % 0.00 in /  0 mm
18:29 74.3 °F /  23.5 °C 68.0 °F /  20 °C 30.17 in /  1021.6 hPa Calm   7.0 mph /  11.3 km/h 81 % 0.00 in /  0 mm
18:34 73.9 °F /  23.3 °C 68.2 °F /  20.1 °C 30.17 in /  1021.6 hPa Calm   3.0 mph /  4.8 km/h 82 % 0.00 in /  0 mm
18:39 73.6 °F /  23.1 °C 68.4 °F /  20.2 °C 30.17 in /  1021.6 hPa SW 1.0 mph /  1.6 km/h 3.0 mph /  4.8 km/h 84 % 0.00 in /  0 mm
18:44 73.2 °F /  22.9 °C 69.1 °F /  20.6 °C 30.18 in /  1021.9 hPa WSW 1.0 mph /  1.6 km/h 3.0 mph /  4.8 km/h 87 % 0.00 in /  0 mm
18:49 73.0 °F /  22.8 °C 69.3 °F /  20.7 °C 30.18 in /  1021.9 hPa Calm   3.0 mph /  4.8 km/h 88 % 0.00 in /  0 mm
18:54 72.9 °F /  22.7 °C 69.1 °F /  20.6 °C 30.17 in /  1021.6 hPa SSW 1.0 mph /  1.6 km/h 2.0 mph /  3.2 km/h 88 % 0.00 in /  0 mm
18:59 72.5 °F /  22.5 °C 69.1 °F /  20.6 °C 30.17 in /  1021.6 hPa Calm   2.0 mph /  3.2 km/h 89 % 0.00 in /  0 mm
19:04 72.1 °F /  22.3 °C 69.1 °F /  20.6 °C 30.17 in /  1021.6 hPa Calm   2.0 mph /  3.2 km/h 90 % 0.00 in /  0 mm
19:09 72.0 °F /  22.2 °C 68.9 °F /  20.5 °C 30.17 in /  1021.6 hPa Calm   2.0 mph /  3.2 km/h 90 % 0.00 in /  0 mm
19:14 71.6 °F /  22 °C 68.9 °F /  20.5 °C 30.17 in /  1021.6 hPa SSE 1.0 mph /  1.6 km/h 1.0 mph /  1.6 km/h 91 % 0.00 in /  0 mm
19:19 71.4 °F /  21.9 °C 68.9 °F /  20.5 °C 30.17 in /  1021.6 hPa Calm   2.0 mph /  3.2 km/h 92 % 0.00 in /  0 mm
19:24 71.1 °F /  21.7 °C 68.5 °F /  20.3 °C 30.17 in /  1021.6 hPa SSE 1.0 mph /  1.6 km/h 2.0 mph /  3.2 km/h 92 % 0.00 in /  0 mm
19:29 70.9 °F /  21.6 °C 68.7 °F /  20.4 °C 30.17 in /  1021.6 hPa SSE 1.0 mph /  1.6 km/h 2.0 mph /  3.2 km/h 93 % 0.00 in /  0 mm
19:34 70.5 °F /  21.4 °C 68.0 °F /  20 °C 30.17 in /  1021.6 hPa Calm   2.0 mph /  3.2 km/h 92 % 0.00 in /  0 mm
19:39 70.3 °F /  21.3 °C 67.8 °F /  19.9 °C 30.17 in /  1021.6 hPa Calm   2.0 mph /  3.2 km/h 92 % 0.00 in /  0 mm
19:44 70.2 °F /  21.2 °C 67.6 °F /  19.8 °C 30.17 in /  1021.6 hPa Calm   2.0 mph /  3.2 km/h 92 % 0.00 in /  0 mm
19:49 70.2 °F /  21.2 °C 67.6 °F /  19.8 °C 30.17 in /  1021.6 hPa South 1.0 mph /  1.6 km/h 2.0 mph /  3.2 km/h 92 % 0.00 in /  0 mm
19:54 70.0 °F /  21.1 °C 67.5 °F /  19.7 °C 30.17 in /  1021.6 hPa Calm   2.0 mph /  3.2 km/h 92 % 0.00 in /  0 mm
19:59 69.6 °F /  20.9 °C 67.3 °F /  19.6 °C 30.17 in /  1021.6 hPa Calm   2.0 mph /  3.2 km/h 92 % 0.00 in /  0 mm
20:04 69.4 °F /  20.8 °C 67.1 °F /  19.5 °C 30.17 in /  1021.6 hPa Calm   2.0 mph /  3.2 km/h 92 % 0.00 in /  0 mm
20:09 69.3 °F /  20.7 °C 66.9 °F /  19.4 °C 30.17 in /  1021.6 hPa Calm   1.0 mph /  1.6 km/h 92 % 0.00 in /  0 mm
20:14 69.1 °F /  20.6 °C 66.7 °F /  19.3 °C 30.17 in /  1021.6 hPa SE 1.0 mph /  1.6 km/h   92 % 0.00 in /  0 mm
20:19 68.9 °F /  20.5 °C 66.7 °F /  19.3 °C 30.17 in /  1021.6 hPa South 1.0 mph /  1.6 km/h 1.0 mph /  1.6 km/h 93 % 0.00 in /  0 mm
20:24 68.9 °F /  20.5 °C 66.7 °F /  19.3 °C 30.17 in /  1021.6 hPa South 1.0 mph /  1.6 km/h 3.0 mph /  4.8 km/h 93 % 0.00 in /  0 mm
20:29 68.9 °F /  20.5 °C 66.7 °F /  19.3 °C 30.17 in /  1021.6 hPa SSE 2.0 mph /  3.2 km/h 3.0 mph /  4.8 km/h 93 % 0.00 in /  0 mm
20:34 69.1 °F /  20.6 °C 66.9 °F /  19.4 °C 30.17 in /  1021.6 hPa South 4.0 mph /  6.4 km/h 4.0 mph /  6.4 km/h 93 % 0.00 in /  0 mm
20:39 69.1 °F /  20.6 °C 66.9 °F /  19.4 °C 30.17 in /  1021.6 hPa SSE 2.0 mph /  3.2 km/h 5.0 mph /  8 km/h 93 % 0.00 in /  0 mm
20:44 69.1 °F /  20.6 °C 66.9 °F /  19.4 °C 30.18 in /  1021.9 hPa South 3.0 mph /  4.8 km/h 5.0 mph /  8 km/h 93 % 0.00 in /  0 mm
20:49 69.1 °F /  20.6 °C 66.9 °F /  19.4 °C 30.17 in /  1021.6 hPa SE 2.0 mph /  3.2 km/h 5.0 mph /  8 km/h 93 % 0.00 in /  0 mm
20:54 69.1 °F /  20.6 °C 66.9 °F /  19.4 °C 30.17 in /  1021.6 hPa South 5.0 mph /  8 km/h 5.0 mph /  8 km/h 93 % 0.00 in /  0 mm
20:59 69.3 °F /  20.7 °C 67.1 °F /  19.5 °C 30.17 in /  1021.6 hPa SSW 2.0 mph /  3.2 km/h 6.0 mph /  9.7 km/h 93 % 0.00 in /  0 mm
21:04 69.3 °F /  20.7 °C 67.5 °F /  19.7 °C 30.17 in /  1021.6 hPa SSE 2.0 mph /  3.2 km/h 6.0 mph /  9.7 km/h 94 % 0.00 in /  0 mm
21:09 69.1 °F /  20.6 °C 67.3 °F /  19.6 °C 30.17 in /  1021.6 hPa SSE 2.0 mph /  3.2 km/h 6.0 mph /  9.7 km/h 94 % 0.00 in /  0 mm
21:14 69.1 °F /  20.6 °C 67.3 °F /  19.6 °C 30.18 in /  1021.9 hPa SE 1.0 mph /  1.6 km/h 5.0 mph /  8 km/h 94 % 0.00 in /  0 mm
21:19 69.1 °F /  20.6 °C 67.6 °F /  19.8 °C 30.18 in /  1021.9 hPa South 3.0 mph /  4.8 km/h 5.0 mph /  8 km/h 95 % 0.00 in /  0 mm
21:24 69.1 °F /  20.6 °C 67.6 °F /  19.8 °C 30.18 in /  1021.9 hPa SSE 2.0 mph /  3.2 km/h 4.0 mph /  6.4 km/h 95 % 0.00 in /  0 mm
21:29 68.9 °F /  20.5 °C 67.5 °F /  19.7 °C 30.18 in /  1021.9 hPa SSW 3.0 mph /  4.8 km/h 4.0 mph /  6.4 km/h 95 % 0.00 in /  0 mm
21:34 68.9 °F /  20.5 °C 67.6 °F /  19.8 °C 30.18 in /  1021.9 hPa SSW 2.0 mph /  3.2 km/h 5.0 mph /  8 km/h 96 % 0.00 in /  0 mm
21:39 69.1 °F /  20.6 °C 67.8 °F /  19.9 °C 30.18 in /  1021.9 hPa South 4.0 mph /  6.4 km/h 5.0 mph /  8 km/h 96 % 0.00 in /  0 mm
21:44 69.3 °F /  20.7 °C 68.0 °F /  20 °C 30.18 in /  1021.9 hPa SSE 2.0 mph /  3.2 km/h 5.0 mph /  8 km/h 96 % 0.00 in /  0 mm
21:49 69.3 °F /  20.7 °C 68.0 °F /  20 °C 30.18 in /  1021.9 hPa East 3.0 mph /  4.8 km/h 6.0 mph /  9.7 km/h 96 % 0.00 in /  0 mm
21:54 69.4 °F /  20.8 °C 68.5 °F /  20.3 °C 30.18 in /  1021.9 hPa SSE 4.0 mph /  6.4 km/h 6.0 mph /  9.7 km/h 97 % 0.00 in /  0 mm
21:59 69.4 °F /  20.8 °C 68.5 °F /  20.3 °C 30.18 in /  1021.9 hPa SSE 4.0 mph /  6.4 km/h 6.0 mph /  9.7 km/h 97 % 0.00 in /  0 mm
22:04 69.6 °F /  20.9 °C 68.7 °F /  20.4 °C 30.18 in /  1021.9 hPa South 3.0 mph /  4.8 km/h 7.0 mph /  11.3 km/h 97 % 0.00 in /  0 mm
22:09 69.6 °F /  20.9 °C 68.7 °F /  20.4 °C 30.18 in /  1021.9 hPa South 4.0 mph /  6.4 km/h 7.0 mph /  11.3 km/h 97 % 0.00 in /  0 mm
22:14 69.6 °F /  20.9 °C 68.7 °F /  20.4 °C 30.18 in /  1021.9 hPa South 4.0 mph /  6.4 km/h 9.0 mph /  14.5 km/h 97 % 0.00 in /  0 mm
22:19 69.6 °F /  20.9 °C 68.7 °F /  20.4 °C 30.17 in /  1021.6 hPa SE 4.0 mph /  6.4 km/h 9.0 mph /  14.5 km/h 97 % 0.00 in /  0 mm
22:24 69.6 °F /  20.9 °C 68.7 °F /  20.4 °C 30.17 in /  1021.6 hPa South 4.0 mph /  6.4 km/h 9.0 mph /  14.5 km/h 97 % 0.00 in /  0 mm
22:29 69.4 °F /  20.8 °C 68.5 °F /  20.3 °C 30.17 in /  1021.6 hPa SSE 2.0 mph /  3.2 km/h 8.0 mph /  12.9 km/h 97 % 0.00 in /  0 mm
22:34 69.4 °F /  20.8 °C 68.5 °F /  20.3 °C 30.17 in /  1021.6 hPa SSE 4.0 mph /  6.4 km/h 8.0 mph /  12.9 km/h 97 % 0.00 in /  0 mm
22:39 69.4 °F /  20.8 °C 68.5 °F /  20.3 °C 30.17 in /  1021.6 hPa ESE 5.0 mph /  8 km/h 11.0 mph /  17.7 km/h 97 % 0.00 in /  0 mm
22:44 69.4 °F /  20.8 °C 68.5 °F /  20.3 °C 30.16 in /  1021.2 hPa SSE 5.0 mph /  8 km/h 11.0 mph /  17.7 km/h 97 % 0.00 in /  0 mm
22:49 69.4 °F /  20.8 °C 68.5 °F /  20.3 °C 30.16 in /  1021.2 hPa South 4.0 mph /  6.4 km/h 11.0 mph /  17.7 km/h 97 % 0.00 in /  0 mm
22:54 69.3 °F /  20.7 °C 68.4 °F /  20.2 °C 30.16 in /  1021.2 hPa SE 3.0 mph /  4.8 km/h 9.0 mph /  14.5 km/h 97 % 0.00 in /  0 mm
22:59 69.3 °F /  20.7 °C 68.4 °F /  20.2 °C 30.16 in /  1021.2 hPa SSE 5.0 mph /  8 km/h 9.0 mph /  14.5 km/h 97 % 0.00 in /  0 mm
23:04 69.3 °F /  20.7 °C 68.4 °F /  20.2 °C 30.16 in /  1021.2 hPa SSW 7.0 mph /  11.3 km/h 12.0 mph /  19.3 km/h 97 % 0.00 in /  0 mm
23:09 69.3 °F /  20.7 °C 68.4 °F /  20.2 °C 30.16 in /  1021.2 hPa SE 8.0 mph /  12.9 km/h 12.0 mph /  19.3 km/h 97 % 0.00 in /  0 mm
23:14 69.3 °F /  20.7 °C 68.4 °F /  20.2 °C 30.16 in /  1021.2 hPa South 10.0 mph /  16.1 km/h 12.0 mph /  19.3 km/h 97 % 0.00 in /  0 mm
23:19 69.3 °F /  20.7 °C 68.4 °F /  20.2 °C 30.16 in /  1021.2 hPa South 7.0 mph /  11.3 km/h 12.0 mph /  19.3 km/h 97 % 0.00 in /  0 mm
23:24 69.3 °F /  20.7 °C 68.4 °F /  20.2 °C 30.16 in /  1021.2 hPa SSE 6.0 mph /  9.7 km/h 13.0 mph /  20.9 km/h 97 % 0.00 in /  0 mm
23:29 69.3 °F /  20.7 °C 68.4 °F /  20.2 °C 30.16 in /  1021.2 hPa South 4.0 mph /  6.4 km/h 13.0 mph /  20.9 km/h 97 % 0.00 in /  0 mm
23:34 69.3 °F /  20.7 °C 68.4 °F /  20.2 °C 30.16 in /  1021.2 hPa SSW 3.0 mph /  4.8 km/h 13.0 mph /  20.9 km/h 97 % 0.00 in /  0 mm
23:39 69.3 °F /  20.7 °C 68.4 °F /  20.2 °C 30.15 in /  1020.9 hPa South 3.0 mph /  4.8 km/h 10.0 mph /  16.1 km/h 97 % 0.00 in /  0 mm
23:44 69.3 °F /  20.7 °C 68.4 °F /  20.2 °C 30.15 in /  1020.9 hPa South 3.0 mph /  4.8 km/h 10.0 mph /  16.1 km/h 97 % 0.00 in /  0 mm
23:49 69.3 °F /  20.7 °C 68.4 °F /  20.2 °C 30.14 in /  1020.5 hPa SSE 2.0 mph /  3.2 km/h 8.0 mph /  12.9 km/h 97 % 0.00 in /  0 mm
23:54 69.1 °F /  20.6 °C 68.2 °F /  20.1 °C 30.14 in /  1020.5 hPa SSW 7.0 mph /  11.3 km/h 8.0 mph /  12.9 km/h 97 % 0.00 in /  0 mm
23:59 69.1 °F /  20.6 °C 68.2 °F /  20.1 °C 30.14 in /  1020.5 hPa SSW 2.0 mph /  3.2 km/h 8.0 mph /  12.9 km/h 97 % 0.00 in /  0 mm
Spring, Texas: Villages of Bridgestone
Compliments of Weather Underground - 3 mb

Script developed by  Jim McMurry - jmcmurry@mwt.net Adapted for the template by  Wim van der Kuil - Leuven-Template.eu

You find our weather info also at:

UK Metoffice

WeatherCloud

Weather Underground

Mid-South Weather Network

AWEKAS

Citizen Weather Observer Program (CWOP)

HAMweather, WeatherForYou, PWS Weather

Equipment we use:

Weather-station
Davis Vantage Vue

Weather-program
Meteohub

Weather-server
Debian 7.9 x86 (Guest)

Provider
DreamHost

Davis Vantage Vue

Meteohub

Debian 7.9 x86 (Guest)

DreamHost